sensor_id;sensor_type;location;lat;lon;timestamp;pressure;altitude;pressure_sealevel;temperature;humidity
43488;BME280;29078;41.932;25.554;2023-05-02T00:01:36;100053.13;;;15.48;51.39
43488;BME280;29078;41.932;25.554;2023-05-02T00:04:02;100041.81;;;15.39;51.22
43488;BME280;29078;41.932;25.554;2023-05-02T00:06:29;100101.19;;;15.68;51.34
43488;BME280;29078;41.932;25.554;2023-05-02T00:08:55;100014.88;;;15.14;51.66
43488;BME280;29078;41.932;25.554;2023-05-02T00:11:21;100092.06;;;15.55;51.85
43488;BME280;29078;41.932;25.554;2023-05-02T00:13:48;100103.22;;;15.66;51.84
43488;BME280;29078;41.932;25.554;2023-05-02T00:16:14;100106.09;;;15.64;51.92
43488;BME280;29078;41.932;25.554;2023-05-02T00:18:39;100098.59;;;15.53;52.04
43488;BME280;29078;41.932;25.554;2023-05-02T00:21:05;100115.91;;;15.64;51.95
43488;BME280;29078;41.932;25.554;2023-05-02T00:23:31;100092.66;;;15.51;52.20
43488;BME280;29078;41.932;25.554;2023-05-02T00:25:57;100055.03;;;15.19;52.09
43488;BME280;29078;41.932;25.554;2023-05-02T00:28:22;100038.34;;;15.04;51.96
43488;BME280;29078;41.932;25.554;2023-05-02T00:30:47;100017.22;;;14.96;51.88
43488;BME280;29078;41.932;25.554;2023-05-02T00:33:13;100063.19;;;15.18;52.12
43488;BME280;29078;41.932;25.554;2023-05-02T00:35:39;100081.00;;;15.17;52.24
43488;BME280;29078;41.932;25.554;2023-05-02T00:38:05;100075.19;;;15.07;52.03
43488;BME280;29078;41.932;25.554;2023-05-02T00:40:41;100041.03;;;14.83;52.28
43488;BME280;29078;41.932;25.554;2023-05-02T00:43:07;100081.88;;;14.97;52.47
43488;BME280;29078;41.932;25.554;2023-05-02T00:45:32;100036.81;;;14.67;52.47
43488;BME280;29078;41.932;25.554;2023-05-02T00:47:57;100129.31;;;15.21;52.63
43488;BME280;29078;41.932;25.554;2023-05-02T00:50:26;100119.59;;;15.07;52.83
43488;BME280;29078;41.932;25.554;2023-05-02T00:52:54;100099.47;;;14.98;52.52
43488;BME280;29078;41.932;25.554;2023-05-02T00:55:19;100097.63;;;14.98;52.48
43488;BME280;29078;41.932;25.554;2023-05-02T00:57:45;100070.28;;;14.83;52.74
43488;BME280;29078;41.932;25.554;2023-05-02T01:00:11;100113.00;;;15.03;52.83
43488;BME280;29078;41.932;25.554;2023-05-02T01:02:54;100128.00;;;15.10;52.71
43488;BME280;29078;41.932;25.554;2023-05-02T01:05:50;100039.75;;;14.51;53.14
43488;BME280;29078;41.932;25.554;2023-05-02T01:08:37;100126.09;;;15.04;52.68
43488;BME280;29078;41.932;25.554;2023-05-02T01:11:06;100118.53;;;15.01;52.94
43488;BME280;29078;41.932;25.554;2023-05-02T01:13:37;100052.47;;;14.55;52.61
43488;BME280;29078;41.932;25.554;2023-05-02T01:16:04;100114.97;;;14.94;52.97
43488;BME280;29078;41.932;25.554;2023-05-02T01:18:35;100112.44;;;14.86;53.07
43488;BME280;29078;41.932;25.554;2023-05-02T01:21:06;100125.22;;;14.97;53.11
43488;BME280;29078;41.932;25.554;2023-05-02T01:26:35;100135.88;;;14.97;53.08
43488;BME280;29078;41.932;25.554;2023-05-02T01:29:06;100130.75;;;14.96;52.76
43488;BME280;29078;41.932;25.554;2023-05-02T01:31:37;100093.16;;;14.56;52.89
43488;BME280;29078;41.932;25.554;2023-05-02T01:34:06;100078.13;;;14.27;53.01
43488;BME280;29078;41.932;25.554;2023-05-02T01:36:34;100116.81;;;14.51;53.15
43488;BME280;29078;41.932;25.554;2023-05-02T01:39:01;100082.81;;;14.25;53.12
43488;BME280;29078;41.932;25.554;2023-05-02T01:41:30;100072.19;;;14.10;53.08
43488;BME280;29078;41.932;25.554;2023-05-02T01:43:58;100089.88;;;14.18;53.27
43488;BME280;29078;41.932;25.554;2023-05-02T01:46:30;100036.91;;;13.44;53.35
43488;BME280;29078;41.932;25.554;2023-05-02T01:48:57;100146.50;;;14.40;53.69
43488;BME280;29078;41.932;25.554;2023-05-02T01:51:29;100089.34;;;14.08;53.49
43488;BME280;29078;41.932;25.554;2023-05-02T01:54:07;100087.59;;;14.15;53.29
43488;BME280;29078;41.932;25.554;2023-05-02T01:56:35;100119.63;;;14.28;53.31
43488;BME280;29078;41.932;25.554;2023-05-02T01:59:04;100110.19;;;14.11;53.21
43488;BME280;29078;41.932;25.554;2023-05-02T02:01:31;100035.59;;;13.70;53.31
43488;BME280;29078;41.932;25.554;2023-05-02T02:03:59;100105.06;;;14.09;53.42
43488;BME280;29078;41.932;25.554;2023-05-02T02:06:25;100116.81;;;14.15;53.58
43488;BME280;29078;41.932;25.554;2023-05-02T02:08:51;100133.47;;;14.23;53.51
43488;BME280;29078;41.932;25.554;2023-05-02T02:11:23;100048.03;;;13.69;53.81
43488;BME280;29078;41.932;25.554;2023-05-02T02:13:57;100128.06;;;14.17;53.85
43488;BME280;29078;41.932;25.554;2023-05-02T02:16:30;100133.38;;;14.17;53.85
43488;BME280;29078;41.932;25.554;2023-05-02T02:18:58;100123.78;;;14.16;53.83
43488;BME280;29078;41.932;25.554;2023-05-02T02:21:27;100056.09;;;13.76;53.58
43488;BME280;29078;41.932;25.554;2023-05-02T02:23:56;100057.47;;;13.72;53.86
43488;BME280;29078;41.932;25.554;2023-05-02T02:26:25;100084.72;;;13.80;54.02
43488;BME280;29078;41.932;25.554;2023-05-02T02:28:51;100066.25;;;13.72;53.89
43488;BME280;29078;41.932;25.554;2023-05-02T02:31:16;100122.03;;;13.93;54.09
43488;BME280;29078;41.932;25.554;2023-05-02T02:33:42;100060.50;;;13.54;54.21
43488;BME280;29078;41.932;25.554;2023-05-02T02:36:14;100130.09;;;14.00;54.06
43488;BME280;29078;41.932;25.554;2023-05-02T02:38:46;100100.09;;;13.70;53.90
43488;BME280;29078;41.932;25.554;2023-05-02T02:41:27;100057.31;;;13.44;54.01
43488;BME280;29078;41.932;25.554;2023-05-02T02:43:59;100126.63;;;13.85;54.04
43488;BME280;29078;41.932;25.554;2023-05-02T02:46:43;100137.63;;;13.82;53.70
43488;BME280;29078;41.932;25.554;2023-05-02T02:57:48;100133.69;;;13.48;53.92
43488;BME280;29078;41.932;25.554;2023-05-02T03:00:19;100121.66;;;13.23;54.03
43488;BME280;29078;41.932;25.554;2023-05-02T03:02:45;100144.91;;;13.35;53.96
43488;BME280;29078;41.932;25.554;2023-05-02T03:05:12;100152.59;;;13.30;53.94
43488;BME280;29078;41.932;25.554;2023-05-02T03:07:38;100078.69;;;12.75;54.24
43488;BME280;29078;41.932;25.554;2023-05-02T03:10:03;100143.59;;;13.17;54.09
43488;BME280;29078;41.932;25.554;2023-05-02T03:12:30;100092.00;;;12.67;54.37
43488;BME280;29078;41.932;25.554;2023-05-02T03:15:24;100069.00;;;12.59;54.23
43488;BME280;29078;41.932;25.554;2023-05-02T03:17:47;100091.81;;;12.68;54.54
43488;BME280;29078;41.932;25.554;2023-05-02T03:20:12;100163.31;;;13.14;54.50
43488;BME280;29078;41.932;25.554;2023-05-02T03:22:38;100128.06;;;12.91;54.18
43488;BME280;29078;41.932;25.554;2023-05-02T03:25:03;100108.97;;;12.50;54.60
43488;BME280;29078;41.932;25.554;2023-05-02T03:27:29;100107.19;;;12.73;54.60
43488;BME280;29078;41.932;25.554;2023-05-02T03:29:56;100153.84;;;12.97;54.37
43488;BME280;29078;41.932;25.554;2023-05-02T03:32:21;100084.13;;;12.51;54.71
43488;BME280;29078;41.932;25.554;2023-05-02T03:34:46;100100.44;;;12.62;54.29
43488;BME280;29078;41.932;25.554;2023-05-02T03:37:12;100159.09;;;13.05;54.29
43488;BME280;29078;41.932;25.554;2023-05-02T03:39:37;100170.56;;;13.20;54.49
43488;BME280;29078;41.932;25.554;2023-05-02T03:42:04;100144.06;;;12.97;54.04
43488;BME280;29078;41.932;25.554;2023-05-02T03:44:29;100169.97;;;13.10;54.43
43488;BME280;29078;41.932;25.554;2023-05-02T03:46:55;100104.69;;;12.71;54.45
43488;BME280;29078;41.932;25.554;2023-05-02T03:49:20;100184.47;;;13.22;54.33
43488;BME280;29078;41.932;25.554;2023-05-02T03:51:46;100111.13;;;12.77;54.15
43488;BME280;29078;41.932;25.554;2023-05-02T03:54:11;100209.56;;;13.34;54.32
43488;BME280;29078;41.932;25.554;2023-05-02T03:56:36;100188.25;;;13.28;54.45
43488;BME280;29078;41.932;25.554;2023-05-02T03:59:02;100173.59;;;13.17;54.30
43488;BME280;29078;41.932;25.554;2023-05-02T04:01:28;100170.50;;;13.05;54.12
43488;BME280;29078;41.932;25.554;2023-05-02T04:03:53;100135.44;;;12.81;53.92
43488;BME280;29078;41.932;25.554;2023-05-02T04:06:19;100186.59;;;13.04;53.95
43488;BME280;29078;41.932;25.554;2023-05-02T04:08:44;100212.69;;;13.15;53.70
43488;BME280;29078;41.932;25.554;2023-05-02T04:11:10;100144.00;;;12.60;53.69
43488;BME280;29078;41.932;25.554;2023-05-02T04:13:35;100222.19;;;13.10;53.66
43488;BME280;29078;41.932;25.554;2023-05-02T04:16:00;100223.34;;;13.07;53.93
43488;BME280;29078;41.932;25.554;2023-05-02T04:18:26;100133.81;;;12.49;53.92
43488;BME280;29078;41.932;25.554;2023-05-02T04:20:51;100155.78;;;12.57;53.87
43488;BME280;29078;41.932;25.554;2023-05-02T04:23:16;100139.63;;;12.44;53.62
43488;BME280;29078;41.932;25.554;2023-05-02T04:25:53;100183.84;;;12.75;53.77
43488;BME280;29078;41.932;25.554;2023-05-02T04:28:20;100204.16;;;12.82;53.86
43488;BME280;29078;41.932;25.554;2023-05-02T04:30:49;100146.72;;;12.52;53.75
43488;BME280;29078;41.932;25.554;2023-05-02T04:33:15;100163.69;;;12.65;54.01
43488;BME280;29078;41.932;25.554;2023-05-02T04:35:42;100220.63;;;13.15;53.58
43488;BME280;29078;41.932;25.554;2023-05-02T04:38:08;100167.53;;;12.86;53.72
43488;BME280;29078;41.932;25.554;2023-05-02T04:40:34;100204.44;;;13.10;53.95
43488;BME280;29078;41.932;25.554;2023-05-02T04:43:00;100209.53;;;13.20;53.73
43488;BME280;29078;41.932;25.554;2023-05-02T04:45:25;100173.88;;;12.99;54.02
43488;BME280;29078;41.932;25.554;2023-05-02T04:47:50;100148.09;;;12.93;53.92
43488;BME280;29078;41.932;25.554;2023-05-02T04:50:16;100206.56;;;13.38;53.72
43488;BME280;29078;41.932;25.554;2023-05-02T04:52:42;100237.25;;;13.55;53.97
43488;BME280;29078;41.932;25.554;2023-05-02T04:55:07;100160.78;;;13.21;53.59
43488;BME280;29078;41.932;25.554;2023-05-02T04:57:33;100189.59;;;13.47;53.89
43488;BME280;29078;41.932;25.554;2023-05-02T04:59:58;100166.84;;;13.29;53.46
43488;BME280;29078;41.932;25.554;2023-05-02T05:02:23;100172.75;;;13.40;53.36
43488;BME280;29078;41.932;25.554;2023-05-02T05:04:50;100228.13;;;13.87;53.02
43488;BME280;29078;41.932;25.554;2023-05-02T05:07:16;100192.72;;;13.65;52.83
43488;BME280;29078;41.932;25.554;2023-05-02T05:09:41;100169.66;;;13.65;52.88
43488;BME280;29078;41.932;25.554;2023-05-02T05:12:07;100228.03;;;14.10;52.67
43488;BME280;29078;41.932;25.554;2023-05-02T05:14:33;100228.16;;;14.16;52.19
43488;BME280;29078;41.932;25.554;2023-05-02T05:16:58;100190.69;;;13.96;51.97
43488;BME280;29078;41.932;25.554;2023-05-02T05:19:23;100229.16;;;14.30;51.64
43488;BME280;29078;41.932;25.554;2023-05-02T05:21:49;100236.19;;;14.38;50.59
43488;BME280;29078;41.932;25.554;2023-05-02T05:24:15;100173.28;;;14.09;50.42
43488;BME280;29078;41.932;25.554;2023-05-02T05:26:40;100203.22;;;14.32;50.29
43488;BME280;29078;41.932;25.554;2023-05-02T05:29:06;100150.03;;;14.11;49.76
43488;BME280;29078;41.932;25.554;2023-05-02T05:31:32;100183.69;;;14.40;49.32
43488;BME280;29078;41.932;25.554;2023-05-02T05:33:57;100217.50;;;14.60;48.80
43488;BME280;29078;41.932;25.554;2023-05-02T05:36:23;100219.25;;;14.53;48.31
43488;BME280;29078;41.932;25.554;2023-05-02T05:38:49;100138.13;;;14.21;47.56
43488;BME280;29078;41.932;25.554;2023-05-02T05:41:15;100144.97;;;14.30;47.47
43488;BME280;29078;41.932;25.554;2023-05-02T05:43:40;100234.81;;;14.92;47.08
43488;BME280;29078;41.932;25.554;2023-05-02T05:46:05;100231.78;;;14.96;46.83
43488;BME280;29078;41.932;25.554;2023-05-02T05:48:31;100152.38;;;14.50;46.69
43488;BME280;29078;41.932;25.554;2023-05-02T05:50:56;100242.56;;;15.09;46.78
43488;BME280;29078;41.932;25.554;2023-05-02T05:53:22;100177.38;;;14.77;46.70
43488;BME280;29078;41.932;25.554;2023-05-02T05:55:47;100197.34;;;14.87;46.12
43488;BME280;29078;41.932;25.554;2023-05-02T05:58:12;100220.50;;;15.15;45.21
43488;BME280;29078;41.932;25.554;2023-05-02T06:00:38;100259.66;;;15.21;44.39
43488;BME280;29078;41.932;25.554;2023-05-02T06:03:04;100252.31;;;15.23;44.58
43488;BME280;29078;41.932;25.554;2023-05-02T06:05:31;100172.06;;;14.77;44.59
43488;BME280;29078;41.932;25.554;2023-05-02T06:07:57;100254.63;;;15.33;44.67
43488;BME280;29078;41.932;25.554;2023-05-02T06:10:22;100182.28;;;14.94;44.37
43488;BME280;29078;41.932;25.554;2023-05-02T06:12:48;100248.22;;;15.48;44.01
43488;BME280;29078;41.932;25.554;2023-05-02T06:15:14;100191.88;;;15.17;43.93
43488;BME280;29078;41.932;25.554;2023-05-02T06:17:39;100193.59;;;15.24;43.23
43488;BME280;29078;41.932;25.554;2023-05-02T06:20:05;100255.66;;;15.74;42.75
43488;BME280;29078;41.932;25.554;2023-05-02T06:22:31;100202.50;;;15.38;41.71
43488;BME280;29078;41.932;25.554;2023-05-02T06:24:56;100248.97;;;15.85;41.14
43488;BME280;29078;41.932;25.554;2023-05-02T06:27:22;100167.66;;;15.33;41.12
43488;BME280;29078;41.932;25.554;2023-05-02T06:29:50;100244.88;;;15.89;41.26
43488;BME280;29078;41.932;25.554;2023-05-02T06:32:15;100235.28;;;15.95;40.73
43488;BME280;29078;41.932;25.554;2023-05-02T06:34:41;100254.88;;;16.15;40.75
43488;BME280;29078;41.932;25.554;2023-05-02T06:37:06;100244.22;;;16.15;40.18
43488;BME280;29078;41.932;25.554;2023-05-02T06:39:32;100248.38;;;16.31;40.09
43488;BME280;29078;41.932;25.554;2023-05-02T06:41:57;100252.97;;;16.37;39.97
43488;BME280;29078;41.932;25.554;2023-05-02T06:44:23;100199.69;;;16.02;39.75
43488;BME280;29078;41.932;25.554;2023-05-02T06:46:48;100226.84;;;16.26;39.95
43488;BME280;29078;41.932;25.554;2023-05-02T06:49:14;100218.25;;;16.30;39.91
43488;BME280;29078;41.932;25.554;2023-05-02T06:51:40;100123.31;;;15.68;40.29
43488;BME280;29078;41.932;25.554;2023-05-02T06:54:05;100221.84;;;16.50;39.91
43488;BME280;29078;41.932;25.554;2023-05-02T06:56:31;100238.56;;;16.79;40.00
43488;BME280;29078;41.932;25.554;2023-05-02T06:58:56;100274.53;;;16.96;39.82
43488;BME280;29078;41.932;25.554;2023-05-02T07:01:22;100258.31;;;17.04;39.43
43488;BME280;29078;41.932;25.554;2023-05-02T07:03:47;100261.66;;;17.13;39.13
43488;BME280;29078;41.932;25.554;2023-05-02T07:06:12;100237.63;;;17.13;38.99
43488;BME280;29078;41.932;25.554;2023-05-02T07:08:38;100157.13;;;16.70;39.21
43488;BME280;29078;41.932;25.554;2023-05-02T07:11:03;100179.91;;;16.92;38.59
43488;BME280;29078;41.932;25.554;2023-05-02T07:13:29;100187.13;;;17.05;38.14
43488;BME280;29078;41.932;25.554;2023-05-02T07:15:54;100258.81;;;17.54;37.50
43488;BME280;29078;41.932;25.554;2023-05-02T07:18:20;100259.63;;;17.61;37.19
43488;BME280;29078;41.932;25.554;2023-05-02T07:20:49;100192.47;;;17.25;37.61
43488;BME280;29078;41.932;25.554;2023-05-02T07:23:14;100255.13;;;17.82;37.54
43488;BME280;29078;41.932;25.554;2023-05-02T07:25:39;100200.88;;;17.55;36.67
43488;BME280;29078;41.932;25.554;2023-05-02T07:28:05;100257.78;;;17.95;36.43
43488;BME280;29078;41.932;25.554;2023-05-02T07:30:31;100260.88;;;17.98;36.22
43488;BME280;29078;41.932;25.554;2023-05-02T07:32:56;100261.06;;;18.03;35.66
43488;BME280;29078;41.932;25.554;2023-05-02T07:35:22;100250.41;;;17.90;35.95
43488;BME280;29078;41.932;25.554;2023-05-02T07:37:48;100195.34;;;17.69;35.94
43488;BME280;29078;41.932;25.554;2023-05-02T07:40:13;100267.41;;;18.16;35.83
43488;BME280;29078;41.932;25.554;2023-05-02T07:42:39;100257.13;;;18.19;35.83
43488;BME280;29078;41.932;25.554;2023-05-02T07:45:06;100254.59;;;18.31;36.15
43488;BME280;29078;41.932;25.554;2023-05-02T07:47:32;100257.03;;;18.46;35.46
43488;BME280;29078;41.932;25.554;2023-05-02T07:49:57;100231.56;;;18.30;35.53
43488;BME280;29078;41.932;25.554;2023-05-02T07:52:23;100151.75;;;17.89;35.50
43488;BME280;29078;41.932;25.554;2023-05-02T07:54:48;100256.78;;;18.60;35.38
43488;BME280;29078;41.932;25.554;2023-05-02T07:57:14;100251.22;;;18.68;35.46
43488;BME280;29078;41.932;25.554;2023-05-02T07:59:39;100247.47;;;18.76;35.82
43488;BME280;29078;41.932;25.554;2023-05-02T08:02:06;100247.41;;;18.89;35.57
43488;BME280;29078;41.932;25.554;2023-05-02T08:04:31;100169.38;;;18.48;35.22
43488;BME280;29078;41.932;25.554;2023-05-02T08:06:57;100250.75;;;19.10;34.51
43488;BME280;29078;41.932;25.554;2023-05-02T08:09:22;100147.19;;;18.47;34.23
43488;BME280;29078;41.932;25.554;2023-05-02T08:11:48;100161.72;;;18.58;34.20
43488;BME280;29078;41.932;25.554;2023-05-02T08:14:14;100248.88;;;19.17;34.33
43488;BME280;29078;41.932;25.554;2023-05-02T08:16:40;100202.69;;;18.96;34.57
43488;BME280;29078;41.932;25.554;2023-05-02T08:19:06;100250.41;;;19.31;34.42
43488;BME280;29078;41.932;25.554;2023-05-02T08:21:32;100185.09;;;19.07;34.26
43488;BME280;29078;41.932;25.554;2023-05-02T08:23:58;100185.97;;;19.26;34.26
43488;BME280;29078;41.932;25.554;2023-05-02T08:26:23;100188.00;;;19.30;33.96
43488;BME280;29078;41.932;25.554;2023-05-02T08:28:52;100215.75;;;19.67;34.20
43488;BME280;29078;41.932;25.554;2023-05-02T08:31:17;100238.41;;;19.90;33.56
43488;BME280;29078;41.932;25.554;2023-05-02T08:33:44;100232.16;;;19.96;33.16
43488;BME280;29078;41.932;25.554;2023-05-02T08:36:10;100205.03;;;19.86;32.31
43488;BME280;29078;41.932;25.554;2023-05-02T08:38:36;100219.22;;;20.11;31.50
43488;BME280;29078;41.932;25.554;2023-05-02T08:41:01;100179.72;;;20.00;31.57
43488;BME280;29078;41.932;25.554;2023-05-02T08:43:27;100214.44;;;20.31;31.94
43488;BME280;29078;41.932;25.554;2023-05-02T08:45:58;100219.88;;;20.61;31.56
43488;BME280;29078;41.932;25.554;2023-05-02T08:48:26;100160.78;;;20.50;30.93
43488;BME280;29078;41.932;25.554;2023-05-02T08:50:52;100222.13;;;21.06;30.64
43488;BME280;29078;41.932;25.554;2023-05-02T08:53:18;100219.75;;;21.28;29.37
43488;BME280;29078;41.932;25.554;2023-05-02T08:55:45;100152.31;;;20.94;28.60
43488;BME280;29078;41.932;25.554;2023-05-02T08:58:12;100197.22;;;21.29;28.04
43488;BME280;29078;41.932;25.554;2023-05-02T09:00:39;100218.72;;;21.52;27.91
43488;BME280;29078;41.932;25.554;2023-05-02T09:03:14;100135.66;;;21.28;28.24
43488;BME280;29078;41.932;25.554;2023-05-02T09:05:52;100166.41;;;21.67;28.05
43488;BME280;29078;41.932;25.554;2023-05-02T09:08:24;100196.25;;;22.17;27.50
43488;BME280;29078;41.932;25.554;2023-05-02T09:10:49;100200.94;;;22.22;27.15
43488;BME280;29078;41.932;25.554;2023-05-02T09:16:09;100199.25;;;22.72;26.84
43488;BME280;29078;41.932;25.554;2023-05-02T09:21:11;100196.28;;;22.86;26.54
43488;BME280;29078;41.932;25.554;2023-05-02T09:26:13;100145.13;;;23.02;26.03
43488;BME280;29078;41.932;25.554;2023-05-02T09:28:40;100172.72;;;23.43;25.80
43488;BME280;29078;41.932;25.554;2023-05-02T09:31:07;100169.59;;;23.51;25.05
43488;BME280;29078;41.932;25.554;2023-05-02T09:33:33;100151.97;;;23.43;24.97
43488;BME280;29078;41.932;25.554;2023-05-02T09:35:59;100099.25;;;23.31;24.74
43488;BME280;29078;41.932;25.554;2023-05-02T09:38:24;100166.97;;;23.90;24.25
43488;BME280;29078;41.932;25.554;2023-05-02T09:40:53;100150.03;;;23.94;24.45
43488;BME280;29078;41.932;25.554;2023-05-02T09:43:22;100147.31;;;24.16;24.41
43488;BME280;29078;41.932;25.554;2023-05-02T09:46:01;100117.94;;;24.20;24.49
43488;BME280;29078;41.932;25.554;2023-05-02T09:48:28;100093.41;;;24.21;24.46
43488;BME280;29078;41.932;25.554;2023-05-02T09:50:54;100159.63;;;24.78;24.31
43488;BME280;29078;41.932;25.554;2023-05-02T09:53:20;100154.84;;;24.90;23.75
43488;BME280;29078;41.932;25.554;2023-05-02T09:55:46;100078.97;;;24.59;23.92
43488;BME280;29078;41.932;25.554;2023-05-02T09:58:21;100044.53;;;24.45;23.23
43488;BME280;29078;41.932;25.554;2023-05-02T10:00:49;100074.41;;;24.60;23.54
43488;BME280;29078;41.932;25.554;2023-05-02T10:03:16;100133.75;;;25.19;23.52
43488;BME280;29078;41.932;25.554;2023-05-02T10:05:43;100083.56;;;24.91;23.14
43488;BME280;29078;41.932;25.554;2023-05-02T10:08:10;100102.47;;;24.91;22.91
43488;BME280;29078;41.932;25.554;2023-05-02T10:10:40;100141.22;;;25.39;23.05
43488;BME280;29078;41.932;25.554;2023-05-02T10:13:09;100103.31;;;25.28;22.69
43488;BME280;29078;41.932;25.554;2023-05-02T10:15:43;100062.28;;;25.37;22.35
43488;BME280;29078;41.932;25.554;2023-05-02T10:18:15;100144.84;;;26.02;22.12
43488;BME280;29078;41.932;25.554;2023-05-02T10:20:47;100099.84;;;25.90;22.33
43488;BME280;29078;41.932;25.554;2023-05-02T10:23:18;100114.06;;;26.28;21.96
43488;BME280;29078;41.932;25.554;2023-05-02T10:25:45;100071.53;;;26.08;21.87
43488;BME280;29078;41.932;25.554;2023-05-02T10:28:11;100114.59;;;26.20;21.60
43488;BME280;29078;41.932;25.554;2023-05-02T10:30:38;100113.31;;;26.38;21.65
43488;BME280;29078;41.932;25.554;2023-05-02T10:33:04;100123.09;;;26.64;21.60
43488;BME280;29078;41.932;25.554;2023-05-02T10:35:30;100120.09;;;26.60;21.44
43488;BME280;29078;41.932;25.554;2023-05-02T10:37:57;100079.19;;;26.47;20.96
43488;BME280;29078;41.932;25.554;2023-05-02T10:40:24;100125.25;;;26.67;20.91
43488;BME280;29078;41.932;25.554;2023-05-02T10:42:50;100108.44;;;26.60;20.87
43488;BME280;29078;41.932;25.554;2023-05-02T10:45:30;100126.09;;;26.93;20.74
43488;BME280;29078;41.932;25.554;2023-05-02T10:48:18;100122.56;;;26.87;20.65
43488;BME280;29078;41.932;25.554;2023-05-02T10:50:46;100066.47;;;26.73;20.65
43488;BME280;29078;41.932;25.554;2023-05-02T10:53:33;100079.75;;;26.59;20.15
43488;BME280;29078;41.932;25.554;2023-05-02T10:56:17;100119.03;;;26.72;20.30
43488;BME280;29078;41.932;25.554;2023-05-02T10:58:47;100080.00;;;26.73;20.38
43488;BME280;29078;41.932;25.554;2023-05-02T11:03:58;100109.28;;;27.27;20.50
43488;BME280;29078;41.932;25.554;2023-05-02T11:06:29;100130.94;;;27.52;20.41
43488;BME280;29078;41.932;25.554;2023-05-02T11:09:30;100115.16;;;27.74;19.77
43488;BME280;29078;41.932;25.554;2023-05-02T11:11:57;100048.75;;;27.51;19.90
43488;BME280;29078;41.932;25.554;2023-05-02T11:19:24;100048.47;;;27.48;19.63
43488;BME280;29078;41.932;25.554;2023-05-02T11:21:50;100114.50;;;28.03;19.29
43488;BME280;29078;41.932;25.554;2023-05-02T11:24:40;100111.81;;;27.98;19.70
43488;BME280;29078;41.932;25.554;2023-05-02T11:30:00;100006.00;;;27.18;19.51
43488;BME280;29078;41.932;25.554;2023-05-02T11:35:21;100114.03;;;27.85;19.57
43488;BME280;29078;41.932;25.554;2023-05-02T11:40:22;100091.00;;;27.78;19.27
43488;BME280;29078;41.932;25.554;2023-05-02T11:42:48;100050.09;;;27.59;18.88
43488;BME280;29078;41.932;25.554;2023-05-02T11:45:13;100069.84;;;27.75;18.93
43488;BME280;29078;41.932;25.554;2023-05-02T11:47:40;100096.13;;;27.84;19.10
43488;BME280;29078;41.932;25.554;2023-05-02T11:50:06;100034.94;;;27.38;19.65
43488;BME280;29078;41.932;25.554;2023-05-02T11:52:39;100091.88;;;27.43;19.76
43488;BME280;29078;41.932;25.554;2023-05-02T11:55:06;100090.31;;;27.21;20.06
43488;BME280;29078;41.932;25.554;2023-05-02T11:57:33;100047.50;;;26.63;20.51
43488;BME280;29078;41.932;25.554;2023-05-02T11:59:59;100038.78;;;26.20;20.93
43488;BME280;29078;41.932;25.554;2023-05-02T12:02:57;100089.66;;;26.13;21.25
43488;BME280;29078;41.932;25.554;2023-05-02T12:05:27;100079.09;;;26.06;21.12
43488;BME280;29078;41.932;25.554;2023-05-02T12:07:56;100070.19;;;26.16;21.16
43488;BME280;29078;41.932;25.554;2023-05-02T12:10:22;100079.19;;;26.37;20.79
43488;BME280;29078;41.932;25.554;2023-05-02T12:12:48;100068.91;;;26.44;20.88
43488;BME280;29078;41.932;25.554;2023-05-02T12:15:14;100062.41;;;26.75;21.22
43488;BME280;29078;41.932;25.554;2023-05-02T12:17:42;99991.19;;;26.34;21.00
43488;BME280;29078;41.932;25.554;2023-05-02T12:20:09;100065.66;;;26.87;21.10
43488;BME280;29078;41.932;25.554;2023-05-02T12:22:35;100036.94;;;26.97;21.11
43488;BME280;29078;41.932;25.554;2023-05-02T12:25:03;100056.97;;;27.16;21.01
43488;BME280;29078;41.932;25.554;2023-05-02T12:27:29;100020.97;;;26.80;20.76
43488;BME280;29078;41.932;25.554;2023-05-02T12:29:54;100052.00;;;27.43;20.62
43488;BME280;29078;41.932;25.554;2023-05-02T12:32:29;100044.81;;;27.88;20.32
43488;BME280;29078;41.932;25.554;2023-05-02T12:34:55;100033.38;;;27.96;20.18
43488;BME280;29078;41.932;25.554;2023-05-02T12:37:25;99988.03;;;27.97;19.94
43488;BME280;29078;41.932;25.554;2023-05-02T12:39:52;100035.66;;;28.28;20.26
43488;BME280;29078;41.932;25.554;2023-05-02T12:42:22;99957.56;;;28.05;19.70
43488;BME280;29078;41.932;25.554;2023-05-02T12:44:49;100028.91;;;28.55;19.99
43488;BME280;29078;41.932;25.554;2023-05-02T12:47:19;100019.16;;;28.54;20.18
43488;BME280;29078;41.932;25.554;2023-05-02T12:52:44;99923.81;;;28.16;19.90
43488;BME280;29078;41.932;25.554;2023-05-02T12:57:41;99967.63;;;28.43;19.76
43488;BME280;29078;41.932;25.554;2023-05-02T13:00:07;99988.88;;;28.36;20.17
43488;BME280;29078;41.932;25.554;2023-05-02T13:02:33;100000.06;;;28.30;20.23
43488;BME280;29078;41.932;25.554;2023-05-02T13:04:58;99990.88;;;28.15;20.11
43488;BME280;29078;41.932;25.554;2023-05-02T13:07:24;99885.41;;;27.60;20.00
43488;BME280;29078;41.932;25.554;2023-05-02T13:09:49;99946.06;;;28.18;20.07
43488;BME280;29078;41.932;25.554;2023-05-02T13:12:15;99857.72;;;27.68;19.97
43488;BME280;29078;41.932;25.554;2023-05-02T13:14:40;99926.66;;;28.01;19.85
43488;BME280;29078;41.932;25.554;2023-05-02T13:17:06;99974.81;;;28.29;20.31
43488;BME280;29078;41.932;25.554;2023-05-02T13:19:33;99974.38;;;28.07;19.53
43488;BME280;29078;41.932;25.554;2023-05-02T13:21:58;99931.28;;;27.56;19.68
43488;BME280;29078;41.932;25.554;2023-05-02T13:24:23;99978.78;;;27.98;20.02